Time;durP1;ratioP1;P1;durP2;ratioP2;P2;SDS_P1;SDS_P2;PMS_P1;PMS_P2;Temp;Humidity;BMP_temperature;BMP_pressure;BME280_temperature;BME280_humidity;BME280_pressure;Samples;Min_cycle;Max_cycle;Signal;HPM_P1;HPM_P2
2023/03/09 00:01:53;;;;;;;30.25;14.70;;;;;;;;;;6316850;28;20044;-63
2023/03/09 00:04:53;;;;;;;30.55;14.25;;;;;;;;;;6316556;28;20372;-61
2023/03/09 00:07:55;;;;;;;28.42;15.07;;;;;;;;;;6315967;28;20043;-63
2023/03/09 00:10:56;;;;;;;31.67;14.18;;;;;;;;;;6319634;28;20494;-62
2023/03/09 00:13:56;;;;;;;29.38;13.73;;;;;;;;;;6322128;28;20130;-60
2023/03/09 00:16:57;;;;;;;30.40;13.75;;;;;;;;;;6315762;28;20571;-60
2023/03/09 00:20:16;;;;;;;25.27;12.85;;;;;;;;;;6319537;28;20044;-61
2023/03/09 00:23:19;;;;;;;28.23;12.90;;;;;;;;;;6325267;28;20043;-64
2023/03/09 00:26:19;;;;;;;;;;;;;;;;;;6318818;28;20470;-60
2023/03/09 00:29:21;;;;;;;24.80;12.07;;;;;;;;;;6321427;28;19931;-64
2023/03/09 00:32:21;;;;;;;27.17;11.75;;;;;;;;;;6318655;28;20042;-61
2023/03/09 00:35:22;;;;;;;29.35;14.05;;;;;;;;;;6322772;28;20043;-64
2023/03/09 00:38:22;;;;;;;27.02;13.52;;;;;;;;;;6321710;28;21064;-64
2023/03/09 00:41:26;;;;;;;31.13;15.20;;;;;;;;;;6317844;28;20139;-60
2023/03/09 00:44:27;;;;;;;28.10;14.23;;;;;;;;;;6320155;28;20050;-61
2023/03/09 00:47:28;;;;;;;30.23;14.57;;;;;;;;;;6324273;28;20067;-60
2023/03/09 00:50:28;;;;;;;31.60;14.40;;;;;;;;;;6325414;28;20483;-63
2023/03/09 00:53:29;;;;;;;35.50;14.57;;;;;;;;;;6323300;28;20052;-62
2023/03/09 00:56:29;;;;;;;44.83;15.77;;;;;;;;;;6322380;28;20506;-60
2023/03/09 00:59:30;;;;;;;47.92;18.10;;;;;;;;;;6318199;28;20146;-61
2023/03/09 01:02:31;;;;;;;48.38;17.08;;;;;;;;;;6317077;28;20048;-60
2023/03/09 01:05:31;;;;;;;32.60;14.73;;;;;;;;;;6323237;28;20043;-60
2023/03/09 01:08:33;;;;;;;26.58;12.80;;;;;;;;;;6330861;28;20054;-61
2023/03/09 01:11:34;;;;;;;29.15;13.77;;;;;;;;;;6341177;28;21285;-64
2023/03/09 01:14:35;;;;;;;30.30;14.13;;;;;;;;;;6322133;28;20049;-62
2023/03/09 01:17:35;;;;;;;31.40;14.05;;;;;;;;;;6301766;28;20059;-62
2023/03/09 01:20:36;;;;;;;26.02;13.48;;;;;;;;;;6321632;28;20067;-60
2023/03/09 01:23:38;;;;;;;27.55;13.10;;;;;;;;;;6320470;28;20048;-61
2023/03/09 01:26:39;;;;;;;28.38;13.55;;;;;;;;;;6322803;28;20532;-61
2023/03/09 01:29:40;;;;;;;48.20;27.70;;;;;;;;;;6319607;28;20064;-60
2023/03/09 01:32:40;;;;;;;35.83;17.15;;;;;;;;;;6320551;28;20591;-63
2023/03/09 01:35:41;;;;;;;35.72;17.23;;;;;;;;;;6330280;28;20177;-61
2023/03/09 01:38:42;;;;;;;37.75;20.58;;;;;;;;;;6340396;28;20101;-62
2023/03/09 01:41:43;;;;;;;34.53;16.05;;;;;;;;;;6321473;28;20914;-63
2023/03/09 01:44:43;;;;;;;33.33;15.18;;;;;;;;;;6321861;28;20044;-60
2023/03/09 01:47:45;;;;;;;33.00;15.20;;;;;;;;;;6335503;28;20036;-61
2023/03/09 01:50:46;;;;;;;31.48;14.90;;;;;;;;;;6325994;28;20047;-61
2023/03/09 01:53:49;;;;;;;32.35;16.52;;;;;;;;;;6334636;28;20055;-61
2023/03/09 01:56:53;;;;;;;36.60;15.90;;;;;;;;;;6330862;28;20048;-60
2023/03/09 02:00:05;;;;;;;35.17;17.02;;;;;;;;;;6322726;28;20392;-61
2023/03/09 02:03:16;;;;;;;38.63;18.85;;;;;;;;;;6316911;28;20823;-62
2023/03/09 02:06:19;;;;;;;38.78;18.67;;;;;;;;;;6320321;28;20040;-64
2023/03/09 02:09:38;;;;;;;45.13;22.48;;;;;;;;;;6329394;28;20375;-62
2023/03/09 02:12:40;;;;;;;45.20;25.05;;;;;;;;;;6336147;28;20043;-61
2023/03/09 02:15:41;;;;;;;34.20;17.20;;;;;;;;;;6321011;28;20058;-60
2023/03/09 02:18:42;;;;;;;34.63;18.70;;;;;;;;;;6320568;28;20040;-61
2023/03/09 02:21:50;;;;;;;34.22;19.83;;;;;;;;;;6320977;28;20040;-61
2023/03/09 02:25:01;;;;;;;34.97;18.13;;;;;;;;;;6330782;28;20050;-60
2023/03/09 02:28:03;;;;;;;30.30;16.10;;;;;;;;;;6323358;28;20048;-60
2023/03/09 02:31:05;;;;;;;33.17;18.83;;;;;;;;;;6322739;28;20047;-60
2023/03/09 02:34:07;;;;;;;31.63;18.08;;;;;;;;;;6320592;28;20138;-61
2023/03/09 02:37:27;;;;;;;28.60;16.13;;;;;;;;;;6321814;28;20489;-60
2023/03/09 02:40:32;;;;;;;33.08;18.83;;;;;;;;;;6324677;28;20480;-61
2023/03/09 02:43:37;;;;;;;38.22;19.85;;;;;;;;;;6340631;28;20455;-62
2023/03/09 02:46:37;;;;;;;27.92;16.40;;;;;;;;;;6322306;28;20044;-61
2023/03/09 02:49:38;;;;;;;30.58;16.35;;;;;;;;;;6341654;28;20548;-60
2023/03/09 02:52:39;;;;;;;30.08;17.25;;;;;;;;;;6323510;28;20062;-60
2023/03/09 02:55:40;;;;;;;25.67;14.13;;;;;;;;;;6330232;28;20058;-62
2023/03/09 02:58:40;;;;;;;24.40;12.15;;;;;;;;;;6321613;28;20051;-60
2023/03/09 03:01:41;;;;;;;33.42;20.50;;;;;;;;;;6317637;28;20546;-60
2023/03/09 03:04:42;;;;;;;30.90;17.48;;;;;;;;;;6322802;28;20092;-61
2023/03/09 03:07:42;;;;;;;24.77;13.63;;;;;;;;;;6326472;28;20047;-61
2023/03/09 03:10:43;;;;;;;28.75;15.02;;;;;;;;;;6318405;28;20336;-60
2023/03/09 03:13:44;;;;;;;26.17;14.07;;;;;;;;;;6326012;28;20051;-61
2023/03/09 03:16:44;;;;;;;40.65;22.77;;;;;;;;;;6336883;28;20489;-60
2023/03/09 03:19:45;;;;;;;33.10;20.10;;;;;;;;;;6320471;28;20101;-61
2023/03/09 03:22:45;;;;;;;34.53;18.65;;;;;;;;;;6323140;28;20040;-60
2023/03/09 03:25:46;;;;;;;38.17;22.45;;;;;;;;;;6319708;28;20149;-63
2023/03/09 03:28:47;;;;;;;38.25;21.52;;;;;;;;;;6317272;28;20090;-61
2023/03/09 03:31:48;;;;;;;36.13;18.15;;;;;;;;;;6318729;28;20126;-60
2023/03/09 03:34:48;;;;;;;38.58;20.55;;;;;;;;;;6325943;28;20778;-61
2023/03/09 03:37:49;;;;;;;37.28;20.75;;;;;;;;;;6338251;28;20666;-61
2023/03/09 03:40:49;;;;;;;34.40;19.90;;;;;;;;;;6323158;28;20098;-61
2023/03/09 03:43:50;;;;;;;42.67;23.83;;;;;;;;;;6332198;28;20044;-61
2023/03/09 03:46:50;;;;;;;34.15;19.90;;;;;;;;;;6331209;28;20052;-61
2023/03/09 03:49:51;;;;;;;47.67;30.25;;;;;;;;;;6316763;28;20406;-60
2023/03/09 03:52:51;;;;;;;43.90;23.98;;;;;;;;;;6319730;28;20048;-61
2023/03/09 03:55:52;;;;;;;46.83;24.65;;;;;;;;;;6316744;28;20036;-61
2023/03/09 03:58:53;;;;;;;104.43;47.20;;;;;;;;;;6318991;28;20043;-62
2023/03/09 04:01:53;;;;;;;250.50;91.97;;;;;;;;;;6318443;28;20044;-61
2023/03/09 04:04:54;;;;;;;144.93;58.53;;;;;;;;;;6332680;28;20051;-61
2023/03/09 04:07:54;;;;;;;120.22;55.60;;;;;;;;;;6328684;28;20066;-61
2023/03/09 04:10:55;;;;;;;109.53;50.33;;;;;;;;;;6339545;28;20096;-61
2023/03/09 04:13:56;;;;;;;112.20;51.75;;;;;;;;;;6324282;28;20047;-63
2023/03/09 04:16:56;;;;;;;112.38;52.10;;;;;;;;;;6318479;28;20383;-61
2023/03/09 04:19:57;;;;;;;84.90;40.55;;;;;;;;;;6319664;28;20036;-63
2023/03/09 04:22:57;;;;;;;182.43;79.97;;;;;;;;;;6327350;28;20044;-60
2023/03/09 04:26:01;;;;;;;177.23;75.93;;;;;;;;;;6321090;28;20046;-63
2023/03/09 04:29:01;;;;;;;176.85;66.55;;;;;;;;;;6315830;28;20490;-61
2023/03/09 04:32:02;;;;;;;130.68;52.97;;;;;;;;;;6317241;28;20046;-61
2023/03/09 04:35:04;;;;;;;165.65;62.95;;;;;;;;;;6333918;28;20350;-60
2023/03/09 04:38:05;;;;;;;315.65;105.00;;;;;;;;;;6331417;28;20040;-64
2023/03/09 04:41:05;;;;;;;253.88;87.78;;;;;;;;;;6319261;28;20085;-61
2023/03/09 04:44:06;;;;;;;287.48;91.80;;;;;;;;;;6317851;28;20097;-61
2023/03/09 04:47:10;;;;;;;211.18;71.72;;;;;;;;;;6318413;28;20036;-61
2023/03/09 04:50:11;;;;;;;146.40;57.03;;;;;;;;;;6320663;28;20644;-62
2023/03/09 04:53:11;;;;;;;164.32;60.00;;;;;;;;;;6316727;28;20044;-60
2023/03/09 04:56:12;;;;;;;117.05;47.00;;;;;;;;;;6317838;28;20046;-60
2023/03/09 04:59:13;;;;;;;69.53;35.83;;;;;;;;;;6317694;28;20055;-60
2023/03/09 05:02:13;;;;;;;63.80;32.55;;;;;;;;;;6322498;28;20059;-64
2023/03/09 05:05:16;;;;;;;70.97;34.97;;;;;;;;;;6315183;28;20113;-61
2023/03/09 05:08:17;;;;;;;72.30;34.55;;;;;;;;;;6314565;28;20046;-61
2023/03/09 05:11:17;;;;;;;142.90;53.50;;;;;;;;;;6315767;28;20414;-60
2023/03/09 05:14:19;;;;;;;130.18;49.83;;;;;;;;;;6313469;28;20036;-60
2023/03/09 05:17:19;;;;;;;120.32;51.03;;;;;;;;;;6314879;28;20601;-63
2023/03/09 05:20:20;;;;;;;108.85;46.22;;;;;;;;;;6328360;28;20074;-60
2023/03/09 05:23:20;;;;;;;63.47;33.63;;;;;;;;;;6318215;28;20048;-61
2023/03/09 05:26:21;;;;;;;56.28;29.30;;;;;;;;;;6315956;28;20070;-61
2023/03/09 05:29:21;;;;;;;62.83;31.10;;;;;;;;;;6317860;28;20048;-61
2023/03/09 05:32:22;;;;;;;60.22;30.20;;;;;;;;;;6314450;28;20072;-60
2023/03/09 05:35:23;;;;;;;57.67;29.95;;;;;;;;;;6312966;28;20384;-63
2023/03/09 05:38:24;;;;;;;60.08;30.95;;;;;;;;;;6319829;28;20125;-63
2023/03/09 05:41:24;;;;;;;61.05;30.60;;;;;;;;;;6319634;28;20055;-60
2023/03/09 05:44:25;;;;;;;55.33;27.85;;;;;;;;;;6319839;28;20093;-64
2023/03/09 05:47:26;;;;;;;51.95;27.60;;;;;;;;;;6319838;28;20534;-62
2023/03/09 05:50:26;;;;;;;51.60;26.08;;;;;;;;;;6340067;28;20466;-61
2023/03/09 05:53:27;;;;;;;52.80;27.02;;;;;;;;;;6324185;28;20043;-64
2023/03/09 05:56:28;;;;;;;57.85;29.90;;;;;;;;;;6321966;28;20040;-62
2023/03/09 05:59:28;;;;;;;66.45;33.25;;;;;;;;;;6321613;28;20051;-61
2023/03/09 06:02:29;;;;;;;72.38;35.15;;;;;;;;;;6336131;28;20141;-61
2023/03/09 06:05:29;;;;;;;69.10;33.95;;;;;;;;;;6325506;27;20044;-63
2023/03/09 06:08:31;;;;;;;66.80;33.40;;;;;;;;;;6318316;27;20616;-61
2023/03/09 06:11:31;;;;;;;79.38;36.50;;;;;;;;;;6318579;28;20043;-61
2023/03/09 06:14:32;;;;;;;70.70;33.63;;;;;;;;;;6319923;28;20047;-60
2023/03/09 06:17:34;;;;;;;84.43;37.63;;;;;;;;;;6319606;28;20048;-60
2023/03/09 06:20:36;;;;;;;82.57;41.05;;;;;;;;;;6318271;28;20049;-61
2023/03/09 06:23:37;;;;;;;;;;;;;;;;;;6319208;28;20074;-60
2023/03/09 06:26:37;;;;;;;104.50;52.03;;;;;;;;;;6321566;28;19920;-61
2023/03/09 06:29:38;;;;;;;140.32;71.13;;;;;;;;;;6319451;28;20036;-60
2023/03/09 06:32:38;;;;;;;157.35;79.68;;;;;;;;;;6319304;28;20088;-61
2023/03/09 06:35:40;;;;;;;167.18;83.78;;;;;;;;;;6319266;28;21185;-61
2023/03/09 06:38:41;;;;;;;178.38;94.35;;;;;;;;;;6323955;28;20486;-61
2023/03/09 06:41:41;;;;;;;166.65;86.30;;;;;;;;;;6320527;28;20052;-60
2023/03/09 06:44:42;;;;;;;140.05;71.68;;;;;;;;;;6324948;27;20070;-61
2023/03/09 06:47:43;;;;;;;123.22;62.80;;;;;;;;;;6319422;28;20117;-61
2023/03/09 06:50:44;;;;;;;103.55;55.78;;;;;;;;;;6319427;28;20047;-60
2023/03/09 06:53:45;;;;;;;94.60;51.17;;;;;;;;;;6338571;28;20051;-60
2023/03/09 06:56:46;;;;;;;89.00;45.78;;;;;;;;;;6323872;28;20046;-60
2023/03/09 06:59:46;;;;;;;82.38;40.78;;;;;;;;;;6316789;28;20498;-61
2023/03/09 07:02:47;;;;;;;62.53;34.90;;;;;;;;;;6316641;28;20048;-61
2023/03/09 07:05:47;;;;;;;69.10;40.53;;;;;;;;;;6318527;28;20384;-60
2023/03/09 07:08:48;;;;;;;59.85;32.25;;;;;;;;;;6315729;28;20604;-60
2023/03/09 07:11:48;;;;;;;65.97;35.90;;;;;;;;;;6325981;28;20054;-60
2023/03/09 07:14:49;;;;;;;74.35;41.45;;;;;;;;;;6337646;28;20495;-60
2023/03/09 07:17:49;;;;;;;76.50;41.53;;;;;;;;;;6321777;28;20097;-61
2023/03/09 07:20:50;;;;;;;81.55;44.13;;;;;;;;;;6320318;28;20044;-59
2023/03/09 07:23:51;;;;;;;85.35;44.25;;;;;;;;;;6333373;28;20043;-61
2023/03/09 07:26:52;;;;;;;73.00;38.72;;;;;;;;;;6331176;28;20144;-60
2023/03/09 07:29:52;;;;;;;64.82;34.25;;;;;;;;;;6340496;28;20441;-60
2023/03/09 07:32:55;;;;;;;60.45;31.55;;;;;;;;;;6324870;28;20379;-61
2023/03/09 07:35:56;;;;;;;65.55;35.88;;;;;;;;;;6319213;28;20047;-60
2023/03/09 07:38:56;;;;;;;54.20;30.25;;;;;;;;;;6320365;28;20139;-61
2023/03/09 07:41:57;;;;;;;85.45;40.60;;;;;;;;;;6319073;28;20502;-60
2023/03/09 07:44:58;;;;;;;74.38;35.25;;;;;;;;;;6319831;28;20051;-61
2023/03/09 07:47:58;;;;;;;64.32;34.80;;;;;;;;;;6319067;28;20083;-60
2023/03/09 07:51:00;;;;;;;48.88;27.98;;;;;;;;;;6321324;28;20058;-61
2023/03/09 07:54:03;;;;;;;50.47;31.60;;;;;;;;;;6317371;28;20047;-61
2023/03/09 07:57:04;;;;;;;44.22;23.58;;;;;;;;;;6320083;28;20038;-60
2023/03/09 08:00:11;;;;;;;35.75;19.45;;;;;;;;;;6325034;28;20478;-61
2023/03/09 08:03:12;;;;;;;27.88;14.70;;;;;;;;;;6337013;28;20120;-60
2023/03/09 08:06:13;;;;;;;35.72;20.35;;;;;;;;;;6321933;28;20044;-60
2023/03/09 08:09:15;;;;;;;34.25;17.48;;;;;;;;;;6327924;28;20039;-60
2023/03/09 08:12:15;;;;;;;37.13;20.10;;;;;;;;;;6318954;28;21013;-60
2023/03/09 08:15:18;;;;;;;41.22;25.42;;;;;;;;;;6314325;28;20047;-61
2023/03/09 08:18:20;;;;;;;39.42;20.65;;;;;;;;;;6325843;28;20047;-60
2023/03/09 08:21:20;;;;;;;38.90;24.00;;;;;;;;;;6333616;28;20044;-60
2023/03/09 08:24:21;;;;;;;36.97;18.70;;;;;;;;;;6318468;28;20547;-59
2023/03/09 08:27:21;;;;;;;32.95;17.80;;;;;;;;;;6319169;28;20051;-60
2023/03/09 08:30:22;;;;;;;35.55;19.15;;;;;;;;;;6315534;28;20044;-61
2023/03/09 08:33:23;;;;;;;32.72;18.40;;;;;;;;;;6316360;28;20048;-60
2023/03/09 08:36:23;;;;;;;28.55;15.00;;;;;;;;;;6316543;28;20060;-59
2023/03/09 08:39:24;;;;;;;23.73;12.25;;;;;;;;;;6336039;28;20047;-60
2023/03/09 08:42:24;;;;;;;20.60;11.18;;;;;;;;;;6326774;28;20044;-59
2023/03/09 08:45:25;;;;;;;18.70;9.60;;;;;;;;;;6318383;28;20051;-60
2023/03/09 08:48:25;;;;;;;23.75;13.27;;;;;;;;;;6331172;28;20044;-61
2023/03/09 08:51:28;;;;;;;20.38;11.23;;;;;;;;;;6320828;28;20048;-59
2023/03/09 08:54:28;;;;;;;23.80;10.35;;;;;;;;;;6317082;28;20803;-60
2023/03/09 08:57:29;;;;;;;16.98;8.90;;;;;;;;;;6332589;28;20057;-60
2023/03/09 09:00:29;;;;;;;20.00;9.02;;;;;;;;;;6324671;28;20044;-60
2023/03/09 09:03:31;;;;;;;16.33;9.00;;;;;;;;;;6315524;28;20078;-61
2023/03/09 09:06:32;;;;;;;13.90;8.07;;;;;;;;;;6314589;28;20036;-61
2023/03/09 09:09:33;;;;;;;15.15;8.15;;;;;;;;;;6316827;28;20127;-62
2023/03/09 09:12:37;;;;;;;16.10;10.00;;;;;;;;;;6316002;28;20070;-61
2023/03/09 09:15:40;;;;;;;17.02;8.68;;;;;;;;;;6317233;28;20042;-60
2023/03/09 09:18:41;;;;;;;20.50;10.85;;;;;;;;;;6321596;28;20075;-61
2023/03/09 09:21:42;;;;;;;17.02;9.02;;;;;;;;;;6320383;28;20407;-60
2023/03/09 09:24:43;;;;;;;16.23;8.15;;;;;;;;;;6320533;28;20051;-60
2023/03/09 09:27:44;;;;;;;18.30;10.80;;;;;;;;;;6322400;28;20084;-61
2023/03/09 09:30:45;;;;;;;16.75;9.05;;;;;;;;;;6322582;28;20519;-60
2023/03/09 09:33:46;;;;;;;16.52;7.63;;;;;;;;;;6321190;28;20036;-60
2023/03/09 09:36:46;;;;;;;16.70;8.15;;;;;;;;;;6321967;28;20079;-60
2023/03/09 09:39:48;;;;;;;15.20;8.10;;;;;;;;;;6322915;28;20486;-60
2023/03/09 09:42:50;;;;;;;18.73;10.00;;;;;;;;;;6321852;28;21360;-61
2023/03/09 09:45:54;;;;;;;13.95;7.53;;;;;;;;;;6320216;27;20041;-60
2023/03/09 09:48:55;;;;;;;15.45;7.93;;;;;;;;;;6321757;28;20054;-60
2023/03/09 09:52:14;;;;;;;14.77;6.82;;;;;;;;;;6321311;28;20044;-61
2023/03/09 09:55:23;;;;;;;14.30;8.20;;;;;;;;;;6321131;28;20050;-61
2023/03/09 09:58:47;;;;;;;11.55;6.97;;;;;;;;;;6321465;28;20499;-60
2023/03/09 10:01:57;;;;;;;13.43;6.28;;;;;;;;;;6321658;28;20138;-60
2023/03/09 10:05:26;;;;;;;11.35;6.22;;;;;;;;;;6319499;28;20052;-61
2023/03/09 10:08:27;;;;;;;12.70;6.40;;;;;;;;;;6313276;28;20488;-61
2023/03/09 10:11:32;;;;;;;11.13;6.22;;;;;;;;;;6319600;28;20395;-61
2023/03/09 10:14:48;;;;;;;12.57;6.57;;;;;;;;;;6321888;28;20043;-60
2023/03/09 10:17:58;;;;;;;12.25;5.85;;;;;;;;;;6318883;28;20449;-60
2023/03/09 10:20:59;;;;;;;11.77;6.72;;;;;;;;;;6319482;28;20047;-60
2023/03/09 10:24:16;;;;;;;12.30;5.97;;;;;;;;;;6322040;28;20043;-60
2023/03/09 10:27:31;;;;;;;14.20;6.25;;;;;;;;;;6323065;28;20052;-60
2023/03/09 10:30:56;;;;;;;12.02;6.63;;;;;;;;;;6340468;28;20050;-60
2023/03/09 10:34:13;;;;;;;12.30;6.30;;;;;;;;;;6320282;28;20040;-60
2023/03/09 10:37:22;;;;;;;12.57;6.57;;;;;;;;;;6320216;28;21143;-60
2023/03/09 10:40:35;;;;;;;10.73;5.93;;;;;;;;;;6320648;28;20079;-60
2023/03/09 10:43:36;;;;;;;12.13;6.47;;;;;;;;;;6317254;28;20097;-61
2023/03/09 10:46:58;;;;;;;14.23;7.45;;;;;;;;;;6318177;28;20043;-61
2023/03/09 10:50:11;;;;;;;13.50;7.00;;;;;;;;;;6317409;28;20043;-61
2023/03/09 10:53:38;;;;;;;14.48;6.70;;;;;;;;;;6316843;28;20047;-60
2023/03/09 10:56:44;;;;;;;11.13;6.00;;;;;;;;;;6320339;28;20082;-61
2023/03/09 10:59:58;;;;;;;13.10;6.10;;;;;;;;;;6320597;28;20040;-60
2023/03/09 11:03:00;;;;;;;10.73;5.60;;;;;;;;;;6321314;28;20071;-60
2023/03/09 11:06:34;;;;;;;12.05;6.22;;;;;;;;;;6320730;28;20126;-61
2023/03/09 11:09:41;;;;;;;11.32;6.00;;;;;;;;;;6319349;28;20104;-60
2023/03/09 11:12:46;;;;;;;13.38;6.10;;;;;;;;;;6320510;28;20281;-61
2023/03/09 11:16:04;;;;;;;14.88;6.93;;;;;;;;;;6319923;28;20302;-61
2023/03/09 11:19:14;;;;;;;14.45;6.30;;;;;;;;;;6318235;28;20048;-59
2023/03/09 11:22:15;;;;;;;11.65;6.03;;;;;;;;;;6317789;28;20176;-60
2023/03/09 11:25:52;;;;;;;12.82;5.88;;;;;;;;;;6320910;28;20048;-60
2023/03/09 11:29:31;;;;;;;11.70;5.82;;;;;;;;;;6319086;28;20044;-60
2023/03/09 11:32:31;;;;;;;14.07;5.95;;;;;;;;;;6335853;28;20051;-60
2023/03/09 11:35:32;;;;;;;12.20;6.05;;;;;;;;;;6327498;28;20036;-60
2023/03/09 11:38:33;;;;;;;13.38;6.53;;;;;;;;;;6319038;28;20043;-60
2023/03/09 11:41:39;;;;;;;11.55;5.40;;;;;;;;;;6318829;28;20509;-60
2023/03/09 11:44:42;;;;;;;11.73;6.68;;;;;;;;;;6318297;28;20036;-61
2023/03/09 11:47:49;;;;;;;10.23;5.88;;;;;;;;;;6315546;28;20520;-60
2023/03/09 11:51:28;;;;;;;15.10;7.47;;;;;;;;;;6321456;28;20048;-61
2023/03/09 11:54:44;;;;;;;14.25;6.60;;;;;;;;;;6282122;28;20474;-61
2023/03/09 11:57:49;;;;;;;14.32;6.65;;;;;;;;;;6321556;28;20051;-61
2023/03/09 12:00:58;;;;;;;15.43;7.90;;;;;;;;;;6319269;28;20069;-61
2023/03/09 12:04:02;;;;;;;21.40;12.13;;;;;;;;;;6318871;28;20051;-61
2023/03/09 12:07:12;;;;;;;17.38;8.80;;;;;;;;;;6318213;28;20422;-60
2023/03/09 12:10:16;;;;;;;12.60;7.20;;;;;;;;;;6319308;28;20127;-60
2023/03/09 12:13:32;;;;;;;16.65;9.18;;;;;;;;;;6317414;28;20043;-61
2023/03/09 12:16:40;;;;;;;13.00;6.40;;;;;;;;;;6316922;28;20066;-60
2023/03/09 12:19:45;;;;;;;16.45;7.03;;;;;;;;;;6316294;28;20459;-60
2023/03/09 12:22:47;;;;;;;10.32;5.90;;;;;;;;;;6316458;28;20075;-60
2023/03/09 12:25:56;;;;;;;12.10;5.88;;;;;;;;;;6317094;28;20047;-59
2023/03/09 12:29:00;;;;;;;12.63;5.35;;;;;;;;;;6317300;28;20054;-61
2023/03/09 12:32:25;;;;;;;10.25;5.18;;;;;;;;;;6319942;28;20035;-60
2023/03/09 12:35:26;;;;;;;21.98;10.38;;;;;;;;;;6317795;28;20058;-60
2023/03/09 12:38:27;;;;;;;11.65;5.22;;;;;;;;;;6317679;28;20402;-60
2023/03/09 12:41:27;;;;;;;12.60;5.68;;;;;;;;;;6315317;28;20039;-61
2023/03/09 12:44:43;;;;;;;12.25;5.28;;;;;;;;;;6312310;28;20056;-62
2023/03/09 12:48:12;;;;;;;13.27;5.93;;;;;;;;;;6313048;28;21286;-61
2023/03/09 12:51:24;;;;;;;10.15;5.00;;;;;;;;;;6296740;28;20833;-62
2023/03/09 12:54:25;;;;;;;12.40;4.83;;;;;;;;;;6318747;28;20643;-62
2023/03/09 12:57:26;;;;;;;9.27;4.90;;;;;;;;;;6318555;27;20048;-61
2023/03/09 13:00:30;;;;;;;12.82;5.80;;;;;;;;;;6318734;28;20559;-62
2023/03/09 13:03:53;;;;;;;10.52;5.38;;;;;;;;;;6316319;28;20081;-61
2023/03/09 13:06:59;;;;;;;13.70;6.20;;;;;;;;;;6317646;28;20623;-62
2023/03/09 13:10:00;;;;;;;11.15;6.32;;;;;;;;;;6317569;28;20074;-61
2023/03/09 13:13:40;;;;;;;12.43;6.50;;;;;;;;;;6315949;28;20048;-61
2023/03/09 13:16:44;;;;;;;14.52;6.65;;;;;;;;;;6318590;27;20060;-60
2023/03/09 13:19:51;;;;;;;13.35;7.13;;;;;;;;;;6316737;27;20100;-61
2023/03/09 13:22:52;;;;;;;13.35;7.25;;;;;;;;;;6314668;27;20044;-61
2023/03/09 13:25:55;;;;;;;12.37;6.87;;;;;;;;;;6318815;27;20048;-61
2023/03/09 13:28:56;;;;;;;13.48;6.85;;;;;;;;;;6319449;28;20296;-61
2023/03/09 13:31:57;;;;;;;14.95;7.20;;;;;;;;;;6317948;27;20047;-61
2023/03/09 13:35:00;;;;;;;17.55;8.20;;;;;;;;;;6317574;28;20192;-60
2023/03/09 13:38:02;;;;;;;14.27;7.20;;;;;;;;;;6317437;28;20780;-61
2023/03/09 13:41:05;;;;;;;;;;;;;;;;;;6318018;27;20181;-61
2023/03/09 13:44:15;;;;;;;17.83;10.00;;;;;;;;;;6315196;28;19927;-64
2023/03/09 13:47:27;;;;;;;19.48;10.20;;;;;;;;;;6315981;27;20059;-63
2023/03/09 13:50:34;;;;;;;18.67;10.13;;;;;;;;;;6319025;27;20051;-62
2023/03/09 13:53:35;;;;;;;21.50;10.85;;;;;;;;;;6311500;28;20042;-62
2023/03/09 13:56:36;;;;;;;20.35;10.60;;;;;;;;;;6311294;28;20871;-62
2023/03/09 14:00:12;;;;;;;18.20;9.85;;;;;;;;;;6299085;28;20056;-63
2023/03/09 14:03:12;;;;;;;17.95;9.88;;;;;;;;;;6311907;28;20051;-60
2023/03/09 14:06:13;;;;;;;20.33;10.68;;;;;;;;;;6310662;28;20055;-63
2023/03/09 14:09:25;;;;;;;21.30;11.50;;;;;;;;;;6317440;27;20036;-61
2023/03/09 14:12:38;;;;;;;18.88;10.98;;;;;;;;;;6312344;27;20055;-61
2023/03/09 14:15:38;;;;;;;18.55;9.98;;;;;;;;;;6313834;27;20055;-62
2023/03/09 14:18:46;;;;;;;19.30;10.25;;;;;;;;;;6317164;27;20069;-61
2023/03/09 14:21:51;;;;;;;24.73;11.85;;;;;;;;;;6316696;27;20039;-62
2023/03/09 14:24:52;;;;;;;19.60;10.00;;;;;;;;;;6317239;27;20040;-63
2023/03/09 14:27:53;;;;;;;21.98;10.63;;;;;;;;;;6316089;27;20044;-62
2023/03/09 14:30:54;;;;;;;19.33;9.80;;;;;;;;;;6314515;27;20097;-63
2023/03/09 14:34:01;;;;;;;22.70;11.13;;;;;;;;;;6313522;28;20044;-63
2023/03/09 14:37:03;;;;;;;19.30;9.73;;;;;;;;;;6314966;28;20164;-62
2023/03/09 14:40:23;;;;;;;22.13;10.73;;;;;;;;;;6317830;28;20516;-63
2023/03/09 14:43:35;;;;;;;19.90;11.00;;;;;;;;;;6318650;28;20353;-62
2023/03/09 14:46:35;;;;;;;23.52;11.27;;;;;;;;;;6321083;28;20074;-63
2023/03/09 14:49:36;;;;;;;21.45;11.13;;;;;;;;;;6318992;27;20088;-61
2023/03/09 14:52:37;;;;;;;21.60;10.60;;;;;;;;;;6300208;28;20048;-61
2023/03/09 14:55:38;;;;;;;17.87;9.83;;;;;;;;;;6321721;28;20403;-63
2023/03/09 14:58:38;;;;;;;21.45;10.55;;;;;;;;;;6316405;28;20048;-61
2023/03/09 15:01:46;;;;;;;17.33;9.32;;;;;;;;;;6315222;27;21718;-64
2023/03/09 15:04:47;;;;;;;18.02;9.50;;;;;;;;;;6325706;27;20573;-63
2023/03/09 15:07:49;;;;;;;19.17;10.55;;;;;;;;;;6326477;27;20047;-64
2023/03/09 15:10:49;;;;;;;19.35;10.18;;;;;;;;;;6327193;27;20055;-64
2023/03/09 15:13:50;;;;;;;23.90;12.20;;;;;;;;;;6317138;27;20127;-63
2023/03/09 15:16:51;;;;;;;23.73;11.88;;;;;;;;;;6318716;27;20055;-63
2023/03/09 15:19:52;;;;;;;25.63;12.63;;;;;;;;;;6315722;27;20048;-62
2023/03/09 15:22:52;;;;;;;25.58;12.82;;;;;;;;;;6320691;27;20032;-62
2023/03/09 15:25:54;;;;;;;27.15;13.48;;;;;;;;;;6320043;27;20132;-61
2023/03/09 15:28:54;;;;;;;22.52;12.02;;;;;;;;;;6331934;27;20629;-65
2023/03/09 15:31:55;;;;;;;22.48;11.23;;;;;;;;;;6321579;27;20128;-62
2023/03/09 15:34:56;;;;;;;18.90;10.45;;;;;;;;;;6317137;27;20047;-63
2023/03/09 15:37:57;;;;;;;23.42;11.48;;;;;;;;;;6321028;27;20487;-62
2023/03/09 15:40:57;;;;;;;22.88;10.77;;;;;;;;;;6315472;27;20055;-62
2023/03/09 15:43:58;;;;;;;24.30;12.00;;;;;;;;;;6310887;27;20055;-63
2023/03/09 15:46:59;;;;;;;31.50;15.45;;;;;;;;;;6317526;27;20499;-62
2023/03/09 15:50:00;;;;;;;28.10;14.55;;;;;;;;;;6315770;27;20039;-63
2023/03/09 15:53:00;;;;;;;23.70;12.18;;;;;;;;;;6312282;27;20182;-62
2023/03/09 15:56:03;;;;;;;26.80;13.68;;;;;;;;;;6316718;27;20502;-63
2023/03/09 15:59:04;;;;;;;22.80;12.27;;;;;;;;;;6315259;27;20655;-63
2023/03/09 16:02:05;;;;;;;23.08;12.57;;;;;;;;;;6314970;27;20046;-62
2023/03/09 16:05:08;;;;;;;24.38;12.50;;;;;;;;;;6314964;27;21160;-62
2023/03/09 16:08:09;;;;;;;22.60;11.25;;;;;;;;;;6316769;27;20047;-62
2023/03/09 16:11:10;;;;;;;23.20;11.95;;;;;;;;;;6298481;28;21213;-62
2023/03/09 16:14:10;;;;;;;21.90;11.15;;;;;;;;;;6318216;27;20539;-63
2023/03/09 16:17:11;;;;;;;23.65;11.77;;;;;;;;;;6317191;27;20114;-63
2023/03/09 16:20:16;;;;;;;21.48;11.40;;;;;;;;;;6311969;27;20047;-62
2023/03/09 16:23:18;;;;;;;23.70;12.23;;;;;;;;;;6315847;27;20055;-62
2023/03/09 16:26:21;;;;;;;23.75;12.32;;;;;;;;;;6316138;27;20065;-66
2023/03/09 16:29:23;;;;;;;24.02;12.93;;;;;;;;;;6318923;27;20056;-62
2023/03/09 16:32:24;;;;;;;24.02;13.23;;;;;;;;;;6314101;28;20047;-62
2023/03/09 16:35:25;;;;;;;27.25;14.02;;;;;;;;;;6312086;28;21523;-63
2023/03/09 16:38:27;;;;;;;27.70;13.82;;;;;;;;;;6313644;28;20044;-63
2023/03/09 16:41:27;;;;;;;26.30;13.60;;;;;;;;;;6313497;28;20517;-62
2023/03/09 16:44:30;;;;;;;22.38;11.88;;;;;;;;;;6318221;28;20040;-62
2023/03/09 16:47:30;;;;;;;26.75;12.68;;;;;;;;;;6316469;28;20058;-63
2023/03/09 16:50:31;;;;;;;24.92;13.75;;;;;;;;;;6318552;28;20059;-67
2023/03/09 16:53:32;;;;;;;24.92;13.30;;;;;;;;;;6310686;28;20069;-63
2023/03/09 16:56:33;;;;;;;24.67;12.93;;;;;;;;;;6317718;28;20062;-61
2023/03/09 16:59:34;;;;;;;25.38;13.85;;;;;;;;;;6315860;28;20046;-62
2023/03/09 17:02:39;;;;;;;29.83;14.68;;;;;;;;;;6316506;28;20051;-62
2023/03/09 17:05:42;;;;;;;32.92;15.35;;;;;;;;;;6317529;28;20058;-63
2023/03/09 17:08:43;;;;;;;34.42;16.90;;;;;;;;;;6316781;28;20089;-62
2023/03/09 17:11:44;;;;;;;38.80;17.70;;;;;;;;;;6312033;28;20052;-62
2023/03/09 17:14:45;;;;;;;35.33;17.50;;;;;;;;;;6315650;28;20052;-61
2023/03/09 17:17:45;;;;;;;35.85;17.05;;;;;;;;;;6318999;28;20063;-62
2023/03/09 17:20:48;;;;;;;37.25;18.10;;;;;;;;;;6325878;28;20067;-62
2023/03/09 17:23:48;;;;;;;;;;;;;;;;;;6315222;28;20083;-62
2023/03/09 17:26:50;;;;;;;39.38;18.27;;;;;;;;;;6318193;28;19928;-62
2023/03/09 17:29:51;;;;;;;45.25;19.48;;;;;;;;;;6316078;28;20078;-62
2023/03/09 17:32:52;;;;;;;35.83;17.58;;;;;;;;;;6314079;28;20044;-62
2023/03/09 17:35:53;;;;;;;36.63;17.85;;;;;;;;;;6317024;28;20402;-62
2023/03/09 17:38:55;;;;;;;36.45;17.45;;;;;;;;;;6322744;27;20418;-62
2023/03/09 17:41:55;;;;;;;35.60;17.02;;;;;;;;;;6326152;27;20067;-62
2023/03/09 17:44:56;;;;;;;40.00;18.27;;;;;;;;;;6322594;27;20054;-63
2023/03/09 17:47:56;;;;;;;35.33;17.83;;;;;;;;;;6318889;27;20044;-62
2023/03/09 17:51:00;;;;;;;34.95;18.08;;;;;;;;;;6318182;27;20147;-62
2023/03/09 17:54:00;;;;;;;39.88;18.80;;;;;;;;;;6302788;27;20113;-61